Weather Data

Pearl Creek Farm: 8878 N Farm Road 75, Walnut Grove MO 65770

<== Previous Day (Thursday 28 Aug 2008) | Next Day (Saturday 30 Aug 2008) ==>

Summary Precipitation Data For Friday 29 August 2008

ElementValueUnits
Precipitation0.13"
Notes(none)
SourceSpringfield-Branson National Airport (SGF)

Summary Temperature Data For Friday 29 August 2008

ElementValueUnits
High Temperature87 oF
Low Temperature69 oF
Average Temperature76 oF
High Humidity94 %
Low Humidity53 %
Average Humidity77 %
SourceSpringfield-Branson National Airport (SGF)

Detail Temperature Data For Friday 29 August 2008

Date / TimeTemp (F)RH (%)Dew Pt (F)Report Date / TimeSource
2008-08-29 06:52:00 70 87 66.0 2017-12-29 19:14:24.89625 Springfield-Branson National Airport (SGF)
2008-08-29 07:52:00 69 90 66.0 2017-12-29 19:14:24.89625 Springfield-Branson National Airport (SGF)
2008-08-29 00:52:00 76 79 69.0 2017-12-29 19:14:24.89625 Springfield-Branson National Airport (SGF)
2008-08-29 03:52:00 74 82 68.0 2017-12-29 19:14:24.89625 Springfield-Branson National Airport (SGF)
2008-08-29 05:52:00 73 84 68.0 2017-12-29 19:14:24.89625 Springfield-Branson National Airport (SGF)
2008-08-29 08:52:00 71 94 69.0 2017-12-29 19:14:24.89625 Springfield-Branson National Airport (SGF)
2008-08-29 09:52:00 73 90 70.0 2017-12-29 19:14:24.89625 Springfield-Branson National Airport (SGF)
2008-08-29 10:52:00 74 88 70.0 2017-12-29 19:14:24.89625 Springfield-Branson National Airport (SGF)
2008-08-29 11:52:00 76 82 70.0 2017-12-29 19:14:24.89625 Springfield-Branson National Airport (SGF)
2008-08-29 14:52:00 87 53 68.0 2017-12-29 19:14:24.89625 Springfield-Branson National Airport (SGF)
2008-08-29 15:52:00 86 53 67.0 2017-12-29 19:14:24.89625 Springfield-Branson National Airport (SGF)
2008-08-29 16:52:00 84 57 67.0 2017-12-29 19:14:24.89625 Springfield-Branson National Airport (SGF)
2008-08-29 17:52:00 83 61 68.0 2017-12-29 19:14:24.89625 Springfield-Branson National Airport (SGF)
2008-08-29 19:52:00 77 79 70.0 2017-12-29 19:14:24.89625 Springfield-Branson National Airport (SGF)
2008-08-29 20:52:00 75 82 69.0 2017-12-29 19:14:24.89625 Springfield-Branson National Airport (SGF)
2008-08-29 21:52:00 74 85 69.0 2017-12-29 19:14:24.89625 Springfield-Branson National Airport (SGF)
2008-08-29 22:52:00 74 82 68.0 2017-12-29 19:14:24.89625 Springfield-Branson National Airport (SGF)
2008-08-29 01:52:00 74 82 68.0 2017-12-29 19:14:24.89625 Springfield-Branson National Airport (SGF)
2008-08-29 02:52:00 74 85 69.0 2017-12-29 19:14:24.89625 Springfield-Branson National Airport (SGF)
2008-08-29 04:52:00 72 82 66.0 2017-12-29 19:14:24.89625 Springfield-Branson National Airport (SGF)
2008-08-29 12:52:00 81 69 70.0 2017-12-29 19:14:24.89625 Springfield-Branson National Airport (SGF)
2008-08-29 13:52:00 85 57 68.0 2017-12-29 19:14:24.89625 Springfield-Branson National Airport (SGF)
2008-08-29 18:52:00 79 74 70.0 2017-12-29 19:14:24.89625 Springfield-Branson National Airport (SGF)
2008-08-29 23:52:00 73 81 67.0 2017-12-29 19:14:24.89625 Springfield-Branson National Airport (SGF)

A total of 24 rows are displayed.